Time;durP1;ratioP1;P1;durP2;ratioP2;P2;SDS_P1;SDS_P2;PMS_P1;PMS_P2;Temp;Humidity;BMP_temperature;BMP_pressure;BME280_temperature;BME280_humidity;BME280_pressure;Samples;Min_cycle;Max_cycle;Signal;HPM_P1;HPM_P2
2021/11/20 00:01:58;;;;;;;35.00;21.63;;;11.10;99.90;;;;;;5057685;28;20515;-86
2021/11/20 00:04:27;;;;;;;36.17;21.37;;;11.10;99.90;;;;;;5073032;28;20091;-88
2021/11/20 00:06:55;;;;;;;41.17;23.45;;;11.10;99.90;;;;;;5055193;28;20040;-88
2021/11/20 00:09:24;;;;;;;35.03;21.93;;;11.10;99.90;;;;;;5054260;28;20405;-89
2021/11/20 01:12:31;;;;;;;33.30;20.73;;;11.20;99.90;;;;;;5075938;28;20043;-88
2021/11/20 01:14:58;;;;;;;38.17;21.60;;;11.20;99.90;;;;;;5058212;28;20037;-89
2021/11/20 01:17:30;;;;;;;31.77;20.40;;;11.20;99.90;;;;;;5057706;28;20056;-88
2021/11/20 01:19:56;;;;;;;31.73;19.57;;;11.20;99.90;;;;;;5057383;28;20485;-88
2021/11/20 01:22:36;;;;;;;35.03;21.70;;;11.20;99.90;;;;;;5043375;28;20400;-89
2021/11/20 01:25:22;;;;;;;32.57;20.67;;;11.20;99.90;;;;;;5058109;28;20598;-88
2021/11/20 01:28:25;;;;;;;34.80;21.53;;;11.20;99.90;;;;;;5064392;28;20060;-88
2021/11/20 01:30:57;;;;;;;33.70;20.67;;;11.20;99.90;;;;;;5041688;28;20033;-88
2021/11/20 01:33:42;;;;;;;35.70;21.43;;;11.20;99.90;;;;;;5043763;28;20032;-88
2021/11/20 01:36:14;;;;;;;35.20;22.10;;;11.20;99.90;;;;;;5041226;28;20063;-88
2021/11/20 01:38:42;;;;;;;34.83;20.90;;;11.20;99.90;;;;;;5058401;28;20029;-88
2021/11/20 01:41:22;;;;;;;32.93;20.57;;;11.20;99.90;;;;;;5057826;28;20081;-89
2021/11/20 01:44:10;;;;;;;34.23;20.37;;;11.20;99.90;;;;;;5057667;28;20075;-88
2021/11/20 01:46:39;;;;;;;33.70;21.07;;;11.20;99.90;;;;;;5057696;28;20028;-86
2021/11/20 01:49:22;;;;;;;33.47;20.70;;;11.20;99.90;;;;;;5040347;28;20507;-86
2021/11/20 01:52:05;;;;;;;35.20;22.13;;;11.20;99.90;;;;;;5057336;28;20404;-86
2021/11/20 01:54:49;;;;;;;33.77;21.27;;;11.20;99.90;;;;;;5074174;28;20032;-86
2021/11/20 01:57:42;;;;;;;36.27;21.53;;;11.20;99.90;;;;;;5057458;28;20541;-87
2021/11/20 02:00:15;;;;;;;34.67;20.63;;;11.20;99.90;;;;;;5056883;28;20025;-85
2021/11/20 02:02:54;;;;;;;36.73;20.87;;;11.10;99.90;;;;;;5074119;28;20060;-85
2021/11/20 02:06:01;;;;;;;38.93;22.17;;;11.10;99.90;;;;;;5042239;28;20043;-86
2021/11/20 02:09:02;;;;;;;38.93;21.90;;;11.10;99.90;;;;;;5047696;28;20518;-86
2021/11/20 02:11:40;;;;;;;34.93;21.50;;;11.10;99.90;;;;;;5057118;28;20451;-86
2021/11/20 02:14:07;;;;;;;34.57;21.60;;;11.10;99.90;;;;;;5056968;28;20115;-86
2021/11/20 02:16:46;;;;;;;36.67;22.00;;;11.10;99.90;;;;;;5073980;28;20033;-86
2021/11/20 02:19:16;;;;;;;36.30;22.47;;;11.10;99.90;;;;;;5056621;28;20020;-86
2021/11/20 02:21:59;;;;;;;38.80;21.10;;;11.10;99.90;;;;;;5055732;28;20028;-86
2021/11/20 02:24:26;;;;;;;36.03;23.13;;;11.10;99.90;;;;;;5057133;28;20419;-85
2021/11/20 02:27:28;;;;;;;36.50;21.87;;;11.10;99.90;;;;;;5074184;28;20033;-87
2021/11/20 02:30:27;;;;;;;37.67;22.40;;;11.10;99.90;;;;;;5040745;28;20029;-85
2021/11/20 02:33:15;;;;;;;35.27;21.10;;;11.00;99.90;;;;;;5057057;28;20033;-85
2021/11/20 02:35:50;;;;;;;32.97;20.33;;;11.00;99.90;;;;;;5073354;28;20039;-88
2021/11/20 02:38:23;;;;;;;36.03;21.07;;;11.10;99.90;;;;;;5056328;28;20040;-88
2021/11/20 02:40:50;;;;;;;36.27;21.33;;;11.00;99.90;;;;;;5055899;28;20030;-88
2021/11/20 02:43:17;;;;;;;33.63;20.97;;;11.00;99.90;;;;;;5056505;28;20024;-87
2021/11/20 02:45:56;;;;;;;33.27;20.77;;;11.00;99.90;;;;;;5073174;28;20020;-88
2021/11/20 02:48:22;;;;;;;31.58;20.33;;;11.00;99.90;;;;;;5056321;28;20111;-87
2021/11/20 02:50:57;;;;;;;30.73;19.77;;;11.00;99.90;;;;;;5055912;28;20082;-87
2021/11/20 02:53:34;;;;;;;34.03;20.80;;;11.10;99.90;;;;;;5056154;28;20028;-87
2021/11/20 02:56:00;;;;;;;34.28;21.80;;;11.00;99.90;;;;;;5056302;28;20036;-85
2021/11/20 02:58:32;;;;;;;35.93;21.77;;;11.10;99.90;;;;;;5040562;28;20032;-85
2021/11/20 03:01:07;;;;;;;34.83;21.73;;;11.10;99.90;;;;;;5055643;28;20047;-85
2021/11/20 03:03:34;;;;;;;31.27;20.50;;;11.10;99.90;;;;;;5056321;28;20024;-85
2021/11/20 03:06:00;;;;;;;31.10;19.73;;;11.00;99.90;;;;;;5039604;28;20020;-86
2021/11/20 03:08:26;;;;;;;32.50;20.40;;;11.10;99.90;;;;;;5055683;28;20032;-85
2021/11/20 03:10:56;;;;;;;32.83;19.90;;;11.10;99.90;;;;;;5055453;28;20094;-85
2021/11/20 03:13:22;;;;;;;33.80;19.90;;;11.10;99.90;;;;;;5039364;28;20040;-86
2021/11/20 03:15:48;;;;;;;36.57;20.17;;;11.10;99.90;;;;;;5039269;28;20032;-85
2021/11/20 03:18:15;;;;;;;30.43;18.93;;;11.10;99.90;;;;;;5038203;28;20059;-85
2021/11/20 03:20:45;;;;;;;30.27;19.50;;;11.10;99.90;;;;;;5054216;28;20048;-86
2021/11/20 03:23:25;;;;;;;31.43;19.27;;;11.10;99.90;;;;;;5055603;28;20032;-85
2021/11/20 03:25:51;;;;;;;32.30;19.93;;;11.10;99.90;;;;;;5055787;28;20029;-86
2021/11/20 03:28:18;;;;;;;31.37;19.63;;;11.10;99.90;;;;;;5072222;28;20052;-86
2021/11/20 03:30:45;;;;;;;32.30;20.27;;;11.10;99.90;;;;;;5055105;28;20123;-85
2021/11/20 03:33:13;;;;;;;29.53;19.87;;;11.10;99.90;;;;;;5055219;28;20036;-85
2021/11/20 03:35:40;;;;;;;35.63;22.03;;;11.10;99.90;;;;;;5072203;28;20040;-86
2021/11/20 03:38:25;;;;;;;36.63;22.50;;;11.10;99.90;;;;;;5055133;28;20067;-88
2021/11/20 03:40:52;;;;;;;34.17;21.13;;;11.10;99.90;;;;;;5054577;28;20059;-87
2021/11/20 03:43:19;;;;;;;36.97;21.87;;;11.10;99.90;;;;;;5038731;28;20024;-87
2021/11/20 03:45:49;;;;;;;37.35;22.20;;;11.10;99.90;;;;;;5055088;28;20029;-88
2021/11/20 03:48:15;;;;;;;33.13;20.87;;;11.10;99.90;;;;;;5073338;28;20020;-87
2021/11/20 03:50:43;;;;;;;35.23;22.17;;;11.10;99.90;;;;;;5071377;28;20119;-86
2021/11/20 03:53:09;;;;;;;32.40;20.50;;;11.10;99.90;;;;;;5071838;28;20115;-86
2021/11/20 03:55:38;;;;;;;37.87;22.73;;;11.10;99.90;;;;;;5055128;28;20028;-85
2021/11/20 03:58:06;;;;;;;33.83;21.40;;;11.10;99.90;;;;;;5071544;28;20435;-88
2021/11/20 04:00:37;;;;;;;38.37;23.70;;;11.10;99.90;;;;;;5054245;28;20032;-87
2021/11/20 04:03:04;;;;;;;39.20;24.57;;;11.10;99.90;;;;;;5072114;28;20104;-87
2021/11/20 04:05:33;;;;;;;37.90;23.23;;;11.10;99.90;;;;;;5038570;28;20524;-88
2021/11/20 04:08:00;;;;;;;38.03;24.87;;;11.10;99.90;;;;;;5038078;28;20078;-87
2021/11/20 04:10:27;;;;;;;40.63;23.80;;;11.10;99.90;;;;;;5037581;28;20435;-87
2021/11/20 04:12:54;;;;;;;39.47;25.17;;;11.10;99.90;;;;;;5054327;28;20394;-88
2021/11/20 04:15:25;;;;;;;43.57;26.10;;;11.10;99.90;;;;;;5054993;28;20036;-87
2021/11/20 04:17:53;;;;;;;42.47;24.73;;;11.10;99.90;;;;;;5038185;28;20084;-87
2021/11/20 04:20:22;;;;;;;38.70;24.50;;;11.10;99.90;;;;;;5054081;28;20111;-87
2021/11/20 04:22:48;;;;;;;41.65;25.33;;;11.10;99.90;;;;;;5055700;28;20027;-87
2021/11/20 04:25:19;;;;;;;42.65;25.58;;;11.10;99.90;;;;;;5039908;28;20052;-87
2021/11/20 04:27:52;;;;;;;43.03;26.20;;;11.10;99.90;;;;;;5055880;28;20028;-87
2021/11/20 04:30:33;;;;;;;42.80;24.50;;;11.10;99.90;;;;;;5026999;28;20028;-87
2021/11/20 04:32:59;;;;;;;44.57;26.57;;;11.10;99.90;;;;;;5055660;28;20082;-88
2021/11/20 04:35:26;;;;;;;44.20;25.42;;;11.10;99.90;;;;;;5039510;28;20393;-88
2021/11/20 04:37:54;;;;;;;47.38;26.48;;;11.10;99.90;;;;;;5055126;28;20032;-87
2021/11/20 04:40:22;;;;;;;44.17;26.27;;;11.10;99.90;;;;;;5078498;28;20066;-87
2021/11/20 04:42:48;;;;;;;48.90;27.27;;;11.10;99.90;;;;;;5056780;28;20024;-87
2021/11/20 04:45:19;;;;;;;45.23;25.47;;;11.10;99.90;;;;;;5036986;28;20085;-87
2021/11/20 04:47:45;;;;;;;45.42;26.42;;;11.10;99.90;;;;;;5054148;28;20028;-87
2021/11/20 04:50:20;;;;;;;46.75;26.25;;;11.10;99.90;;;;;;5053555;28;20028;-88
2021/11/20 04:52:45;;;;;;;;;;;11.10;99.90;;;;;;5071342;28;20035;-88
2021/11/20 04:55:12;;;;;;;47.47;26.90;;;11.10;99.90;;;;;;5054221;28;19934;-85
2021/11/20 04:57:39;;;;;;;45.40;26.57;;;11.10;99.90;;;;;;5054167;28;20033;-85
2021/11/20 05:00:18;;;;;;;47.07;25.73;;;11.10;99.90;;;;;;5037075;28;20033;-87
2021/11/20 05:02:56;;;;;;;43.33;24.67;;;11.10;99.90;;;;;;5054089;28;20027;-88
2021/11/20 05:05:28;;;;;;;46.17;25.40;;;11.10;99.90;;;;;;5038302;28;20481;-88
2021/11/20 05:07:55;;;;;;;43.93;25.70;;;11.10;99.90;;;;;;5037384;28;20059;-88
2021/11/20 05:10:21;;;;;;;46.80;26.20;;;11.10;99.90;;;;;;5036956;28;20040;-88
2021/11/20 05:12:49;;;;;;;47.03;25.93;;;11.10;99.90;;;;;;5037600;28;20084;-87
2021/11/20 05:15:24;;;;;;;43.30;24.80;;;11.10;99.90;;;;;;5038683;28;20052;-87
2021/11/20 05:17:50;;;;;;;45.50;26.17;;;11.10;99.90;;;;;;5053815;28;20033;-88
2021/11/20 05:20:34;;;;;;;47.27;26.70;;;11.10;99.90;;;;;;5056118;28;20059;-88
2021/11/20 05:23:00;;;;;;;44.90;24.80;;;11.10;99.90;;;;;;5053786;28;20028;-88
2021/11/20 05:25:27;;;;;;;47.17;26.00;;;11.10;99.90;;;;;;5037197;28;20086;-88
2021/11/20 05:27:53;;;;;;;44.50;26.17;;;11.10;99.90;;;;;;5053818;28;20042;-88
2021/11/20 05:30:27;;;;;;;45.63;24.80;;;11.10;99.90;;;;;;5036712;28;20082;-88
2021/11/20 05:32:54;;;;;;;46.93;24.87;;;11.10;99.90;;;;;;5070541;28;20508;-88
2021/11/20 05:35:22;;;;;;;46.30;27.03;;;11.10;99.90;;;;;;5053861;28;20040;-89
2021/11/20 05:37:48;;;;;;;47.77;26.47;;;11.10;99.90;;;;;;5053627;28;20137;-87
2021/11/20 05:40:16;;;;;;;44.70;25.30;;;11.10;99.90;;;;;;5053157;28;20112;-87
2021/11/20 05:42:48;;;;;;;44.43;25.00;;;11.10;99.90;;;;;;5054961;28;20119;-85
2021/11/20 05:45:16;;;;;;;44.00;24.70;;;11.10;99.90;;;;;;5074823;28;20505;-85
2021/11/20 05:47:42;;;;;;;45.45;24.17;;;11.10;99.90;;;;;;5058386;28;20037;-87
2021/11/20 05:50:09;;;;;;;46.23;24.47;;;11.10;99.90;;;;;;5058230;28;20043;-86
2021/11/20 05:52:35;;;;;;;42.50;23.10;;;11.10;99.90;;;;;;5057753;28;20077;-86
2021/11/20 05:55:02;;;;;;;41.73;23.93;;;11.10;99.90;;;;;;5039732;28;20107;-86
2021/11/20 05:57:35;;;;;;;40.80;22.97;;;11.10;99.90;;;;;;5056998;28;20025;-87
2021/11/20 06:00:11;;;;;;;43.33;23.83;;;11.10;99.90;;;;;;5040970;28;20029;-88
2021/11/20 06:02:50;;;;;;;40.50;23.80;;;11.10;99.90;;;;;;5074340;28;20065;-87
2021/11/20 06:05:16;;;;;;;38.53;22.20;;;11.10;99.90;;;;;;5057564;28;20024;-87
2021/11/20 06:07:43;;;;;;;41.47;23.03;;;11.10;99.90;;;;;;5055663;28;20029;-86
2021/11/20 06:10:09;;;;;;;42.03;23.53;;;11.10;99.90;;;;;;5050470;28;20028;-85
2021/11/20 06:12:35;;;;;;;42.57;23.73;;;11.10;99.90;;;;;;5073964;28;20043;-87
2021/11/20 06:15:03;;;;;;;40.50;23.13;;;11.10;99.90;;;;;;5059880;28;20067;-87
2021/11/20 06:17:30;;;;;;;39.60;22.80;;;11.10;99.90;;;;;;5076645;28;20552;-86
2021/11/20 06:19:56;;;;;;;40.17;23.13;;;11.10;99.90;;;;;;5048041;28;20028;-88
2021/11/20 06:22:24;;;;;;;39.37;22.63;;;11.10;99.90;;;;;;5058508;28;20060;-86
2021/11/20 06:24:53;;;;;;;42.87;23.60;;;11.00;99.90;;;;;;5041911;28;20024;-88
2021/11/20 06:27:21;;;;;;;40.00;23.40;;;11.10;99.90;;;;;;5056843;28;20040;-87
2021/11/20 06:29:50;;;;;;;38.92;21.58;;;11.00;99.90;;;;;;5039821;28;20032;-87
2021/11/20 06:32:18;;;;;;;39.30;23.33;;;11.00;99.90;;;;;;5056549;28;20040;-87
2021/11/20 06:34:47;;;;;;;40.03;22.80;;;11.00;99.90;;;;;;5056577;28;20032;-85
2021/11/20 06:37:13;;;;;;;43.53;25.03;;;11.00;99.90;;;;;;5074502;28;20051;-85
2021/11/20 06:39:54;;;;;;;44.23;24.93;;;11.00;99.90;;;;;;5041627;28;20033;-85
2021/11/20 06:42:20;;;;;;;42.50;24.33;;;11.00;99.90;;;;;;5056406;28;20025;-86
2021/11/20 06:44:47;;;;;;;45.93;25.23;;;11.00;99.90;;;;;;5039784;28;20037;-89
2021/11/20 06:47:13;;;;;;;48.10;25.13;;;11.00;99.90;;;;;;5039494;28;20051;-88
2021/11/20 06:49:40;;;;;;;48.77;24.93;;;11.00;99.90;;;;;;5039229;28;20032;-87
2021/11/20 06:52:07;;;;;;;44.63;25.33;;;10.90;99.90;;;;;;5039551;28;20509;-88
2021/11/20 06:54:51;;;;;;;42.07;23.90;;;11.00;99.90;;;;;;5073172;28;20105;-87
2021/11/20 06:57:46;;;;;;;44.70;24.10;;;11.00;99.90;;;;;;5056070;28;20489;-86
2021/11/20 07:00:32;;;;;;;49.73;25.70;;;10.90;99.90;;;;;;5001674;28;20035;-85
2021/11/20 07:03:20;;;;;;;50.47;25.70;;;11.00;99.90;;;;;;5041948;28;20025;-87
2021/11/20 07:06:01;;;;;;;43.05;23.30;;;11.00;99.90;;;;;;5056923;28;20025;-88
2021/11/20 07:08:29;;;;;;;42.57;23.70;;;10.90;99.90;;;;;;5056024;28;20051;-88
2021/11/20 07:10:56;;;;;;;47.73;26.13;;;11.00;99.90;;;;;;5056537;28;20101;-87
2021/11/20 07:13:23;;;;;;;45.93;25.37;;;11.00;99.90;;;;;;5056684;28;20385;-87
2021/11/20 07:15:50;;;;;;;47.90;26.07;;;11.00;99.90;;;;;;5056420;28;20025;-88
2021/11/20 07:18:17;;;;;;;46.03;25.57;;;11.00;99.90;;;;;;5055628;28;20038;-89
2021/11/20 07:21:07;;;;;;;46.07;25.10;;;11.00;99.90;;;;;;5043797;28;20060;-88
2021/11/20 07:23:35;;;;;;;45.58;25.38;;;11.00;99.90;;;;;;5073645;28;20139;-88
2021/11/20 07:26:03;;;;;;;48.83;25.33;;;11.00;99.90;;;;;;5039072;28;20388;-88
2021/11/20 07:28:30;;;;;;;47.57;24.70;;;11.00;99.90;;;;;;5055258;28;20033;-87
2021/11/20 07:30:56;;;;;;;46.67;24.03;;;11.00;99.90;;;;;;5038505;28;20028;-86
2021/11/20 07:33:23;;;;;;;49.50;25.57;;;11.00;99.90;;;;;;5038860;28;20521;-86
2021/11/20 07:35:52;;;;;;;49.90;25.63;;;11.00;99.90;;;;;;5055501;28;20032;-85
2021/11/20 07:38:24;;;;;;;47.80;25.23;;;11.00;99.90;;;;;;5057363;28;20113;-86
2021/11/20 07:40:50;;;;;;;47.67;25.10;;;11.00;99.90;;;;;;5057975;28;20037;-86
2021/11/20 07:43:17;;;;;;;47.30;24.70;;;11.00;99.90;;;;;;5058790;28;20021;-86
2021/11/20 07:46:05;;;;;;;47.70;25.93;;;11.00;99.90;;;;;;5058379;28;20142;-86
2021/11/20 07:48:34;;;;;;;47.47;24.77;;;11.10;99.90;;;;;;5058805;28;20034;-86
2021/11/20 07:51:03;;;;;;;45.97;25.50;;;11.10;99.90;;;;;;5042519;28;20024;-86
2021/11/20 07:53:38;;;;;;;47.40;23.85;;;11.10;99.90;;;;;;5059560;28;20059;-86
2021/11/20 07:56:06;;;;;;;48.63;25.43;;;11.10;99.90;;;;;;5059927;28;20081;-87
2021/11/20 07:58:34;;;;;;;44.70;25.33;;;11.10;99.90;;;;;;5058758;28;20028;-86
2021/11/20 08:01:03;;;;;;;48.53;25.75;;;11.10;99.90;;;;;;5054902;28;20562;-88
2021/11/20 08:03:31;;;;;;;46.03;25.77;;;11.10;99.90;;;;;;5054864;28;20074;-89
2021/11/20 08:06:06;;;;;;;48.30;25.63;;;11.10;99.90;;;;;;5040430;28;20024;-86
2021/11/20 08:09:07;;;;;;;50.40;26.05;;;11.10;99.90;;;;;;5053505;28;20024;-86
2021/11/20 08:12:06;;;;;;;46.27;25.37;;;11.10;99.90;;;;;;5038520;28;20024;-88
2021/11/20 08:14:50;;;;;;;50.60;27.33;;;11.10;99.90;;;;;;5057459;28;20512;-88
2021/11/20 08:17:45;;;;;;;45.63;24.43;;;11.10;99.90;;;;;;5058551;28;20036;-88
2021/11/20 08:20:41;;;;;;;49.17;26.30;;;11.10;99.90;;;;;;5039948;28;20481;-89
2021/11/20 08:23:25;;;;;;;51.87;27.47;;;11.10;99.90;;;;;;5071214;28;20029;-88
2021/11/20 08:25:51;;;;;;;52.47;28.53;;;11.10;99.90;;;;;;5037951;28;20025;-86
2021/11/20 08:28:19;;;;;;;51.50;26.70;;;11.10;99.90;;;;;;5041524;28;20505;-86
2021/11/20 08:30:47;;;;;;;46.53;25.02;;;11.10;99.90;;;;;;5057843;28;20082;-86
2021/11/20 08:33:13;;;;;;;48.67;26.63;;;11.10;99.90;;;;;;5058198;28;20032;-86
2021/11/20 08:36:11;;;;;;;50.03;26.50;;;11.10;99.90;;;;;;5044142;28;20035;-87
2021/11/20 08:38:55;;;;;;;50.30;26.07;;;11.10;99.90;;;;;;5071669;28;20047;-87
2021/11/20 08:41:23;;;;;;;50.10;27.17;;;11.10;99.90;;;;;;5037926;28;20489;-87
2021/11/20 09:36:54;;;;;;;45.13;24.77;;;11.30;99.90;;;;;;4898204;29;20410;-88
2021/11/20 09:39:39;;;;;;;40.30;23.27;;;11.30;99.90;;;;;;4905085;28;20052;-88
2021/11/20 09:42:38;;;;;;;46.03;24.40;;;11.30;99.90;;;;;;5017963;28;20029;-88
2021/11/20 09:45:22;;;;;;;42.03;23.87;;;11.30;99.90;;;;;;5042582;28;20067;-87
2021/11/20 09:48:39;;;;;;;42.47;23.33;;;11.30;99.90;;;;;;5057388;28;20266;-88
2021/11/20 09:51:21;;;;;;;43.73;24.03;;;11.30;99.90;;;;;;5057404;28;20048;-88
2021/11/20 09:53:50;;;;;;;41.60;22.83;;;11.30;99.90;;;;;;5057570;28;20496;-87
2021/11/20 09:56:24;;;;;;;37.73;22.50;;;11.30;99.90;;;;;;5076148;28;20285;-88
2021/11/20 09:58:55;;;;;;;45.37;27.13;;;11.30;99.90;;;;;;5064157;28;20039;-88
2021/11/20 10:01:33;;;;;;;43.30;23.13;;;11.30;99.90;;;;;;5075260;28;20055;-88
2021/11/20 10:04:02;;;;;;;35.07;21.50;;;11.30;99.90;;;;;;5057306;28;20021;-88
2021/11/20 10:06:47;;;;;;;36.70;21.40;;;11.30;99.90;;;;;;5075088;28;20020;-88
2021/11/20 10:09:25;;;;;;;35.53;20.77;;;11.40;99.90;;;;;;5057231;28;20334;-88
2021/11/20 10:12:11;;;;;;;31.37;19.03;;;11.30;99.90;;;;;;5057004;28;20035;-87
2021/11/20 10:14:43;;;;;;;36.70;20.50;;;11.40;99.90;;;;;;5073740;28;20042;-86
2021/11/20 10:17:15;;;;;;;34.00;19.87;;;11.40;99.90;;;;;;5073698;28;20028;-86
2021/11/20 10:19:45;;;;;;;33.50;19.30;;;11.40;99.90;;;;;;5074960;28;20031;-86
2021/11/20 10:22:32;;;;;;;31.97;19.10;;;11.40;99.90;;;;;;5073953;28;20046;-88
2021/11/20 10:25:13;;;;;;;33.93;19.73;;;11.40;99.90;;;;;;5057338;28;20124;-88
2021/11/20 10:27:55;;;;;;;31.00;18.67;;;11.40;99.90;;;;;;5073539;28;20105;-88
2021/11/20 10:30:44;;;;;;;31.70;17.60;;;11.40;99.90;;;;;;5057015;28;20119;-88
2021/11/20 10:33:18;;;;;;;33.90;19.90;;;11.40;99.90;;;;;;5031995;28;20036;-88
2021/11/20 10:35:49;;;;;;;34.47;19.60;;;11.40;99.90;;;;;;5056768;28;20032;-88
2021/11/20 10:38:30;;;;;;;38.10;21.43;;;11.40;99.90;;;;;;5056751;28;20028;-88
2021/11/20 10:41:08;;;;;;;41.40;23.13;;;11.40;99.90;;;;;;5056776;28;20033;-87
2021/11/20 10:43:52;;;;;;;38.67;21.27;;;11.40;99.90;;;;;;5055827;28;20072;-85
2021/11/20 10:46:26;;;;;;;42.50;22.70;;;11.40;99.90;;;;;;5056645;28;20086;-88
2021/11/20 10:49:08;;;;;;;41.70;22.80;;;11.40;99.90;;;;;;5057290;28;20032;-87
2021/11/20 10:51:55;;;;;;;39.97;22.87;;;11.40;99.90;;;;;;5074165;28;20028;-88
2021/11/20 10:54:47;;;;;;;40.37;22.37;;;11.40;99.90;;;;;;5057347;28;20036;-88
2021/11/20 10:57:44;;;;;;;40.33;21.77;;;11.40;99.90;;;;;;5056913;28;20040;-88
2021/11/20 11:00:20;;;;;;;41.17;21.10;;;11.40;99.90;;;;;;5056522;28;20501;-88
2021/11/20 11:03:24;;;;;;;33.60;19.67;;;11.40;99.90;;;;;;5056798;28;20048;-88
2021/11/20 11:06:13;;;;;;;35.17;19.60;;;11.40;99.90;;;;;;5056461;28;20032;-88
2021/11/20 11:08:48;;;;;;;31.60;17.92;;;11.40;99.90;;;;;;5041032;28;20040;-88
2021/11/20 11:11:42;;;;;;;35.17;19.83;;;11.40;99.90;;;;;;5056326;28;20409;-88
2021/11/20 11:14:22;;;;;;;34.37;18.77;;;11.40;99.90;;;;;;5073794;28;20051;-88
2021/11/20 11:16:56;;;;;;;31.30;19.00;;;11.40;99.90;;;;;;5056683;28;20036;-88
2021/11/20 11:27:48;;;;;;;32.63;17.67;;;11.40;99.90;;;;;;5073794;28;20070;-87
2021/11/20 11:54:09;;;;;;;22.93;13.93;;;11.40;99.90;;;;;;4972061;28;20050;-88
2021/11/20 11:58:09;;;;;;;27.97;16.30;;;11.40;99.90;;;;;;4933507;29;20076;-87
2021/11/20 12:01:37;;;;;;;25.00;14.07;;;11.40;99.90;;;;;;4895825;29;20055;-87
2021/11/20 12:04:17;;;;;;;22.67;14.10;;;11.40;99.90;;;;;;4906365;29;20058;-87
2021/11/20 12:07:05;;;;;;;22.17;13.17;;;11.40;99.90;;;;;;4976660;28;20048;-88
2021/11/20 12:09:36;;;;;;;22.33;13.20;;;11.40;99.90;;;;;;5054729;28;20032;-88
2021/11/20 12:12:09;;;;;;;23.80;13.87;;;11.40;99.90;;;;;;5056137;28;20450;-88
2021/11/20 12:14:39;;;;;;;24.53;13.93;;;11.40;99.90;;;;;;5056420;28;20135;-86
2021/11/20 12:17:20;;;;;;;21.63;13.50;;;11.40;99.90;;;;;;5055768;28;20532;-88
2021/11/20 12:20:20;;;;;;;19.30;12.07;;;11.40;99.90;;;;;;5071413;28;20439;-87
2021/11/20 12:23:24;;;;;;;18.63;12.00;;;11.30;99.90;;;;;;5046889;28;20047;-88
2021/11/20 12:26:14;;;;;;;18.57;12.30;;;11.30;99.90;;;;;;5029993;28;20062;-88
2021/11/20 12:29:06;;;;;;;20.55;12.82;;;11.30;99.90;;;;;;5054551;28;20059;-87
2021/11/20 12:31:54;;;;;;;18.80;13.00;;;11.30;99.90;;;;;;5054625;28;20064;-86
2021/11/20 12:35:01;;;;;;;24.17;13.20;;;11.40;99.90;;;;;;5054605;28;20032;-87
2021/11/20 12:37:43;;;;;;;26.43;13.13;;;11.40;99.90;;;;;;5054431;28;20033;-88
2021/11/20 12:40:35;;;;;;;24.20;13.40;;;11.40;99.90;;;;;;5054254;28;20028;-87
2021/11/20 12:43:03;;;;;;;20.03;13.17;;;11.40;99.90;;;;;;5071076;28;20481;-88
2021/11/20 12:45:38;;;;;;;19.23;12.93;;;11.40;99.90;;;;;;5071134;28;20115;-87
2021/11/20 12:48:38;;;;;;;19.57;12.50;;;11.40;99.90;;;;;;5071287;28;20044;-87
2021/11/20 12:51:28;;;;;;;20.27;13.27;;;11.40;99.90;;;;;;5054141;28;20074;-88
2021/11/20 12:54:38;;;;;;;21.93;13.57;;;11.40;99.90;;;;;;5054421;28;20062;-88
2021/11/20 12:57:11;;;;;;;21.43;12.77;;;11.40;99.90;;;;;;4971291;28;20066;-88
2021/11/20 12:59:43;;;;;;;17.40;11.90;;;11.40;99.90;;;;;;4971010;28;20035;-87
2021/11/20 13:02:36;;;;;;;19.70;11.97;;;11.40;99.90;;;;;;5010808;28;20473;-88
2021/11/20 13:05:14;;;;;;;17.87;11.67;;;11.40;99.90;;;;;;5054524;28;20549;-88
2021/11/20 13:07:58;;;;;;;16.07;11.00;;;11.40;99.90;;;;;;5044016;28;20039;-88
2021/11/20 13:10:33;;;;;;;16.77;11.33;;;11.40;99.90;;;;;;5060487;28;20074;-88
2021/11/20 13:13:15;;;;;;;17.50;11.37;;;11.40;99.90;;;;;;5060293;28;20463;-87
2021/11/20 13:16:12;;;;;;;18.53;11.73;;;11.40;99.90;;;;;;5077576;28;20047;-87
2021/11/20 13:18:58;;;;;;;18.73;11.47;;;11.40;99.90;;;;;;5060829;28;20033;-88
2021/11/20 13:21:44;;;;;;;19.30;12.43;;;11.40;99.90;;;;;;5061073;28;20032;-87
2021/11/20 13:24:14;;;;;;;19.80;12.43;;;11.40;99.90;;;;;;5077328;28;20032;-88
2021/11/20 13:26:59;;;;;;;16.17;11.40;;;11.30;99.90;;;;;;5060873;28;20038;-88
2021/11/20 13:29:28;;;;;;;16.93;11.90;;;11.30;99.90;;;;;;5060325;28;20431;-86
2021/11/20 13:31:54;;;;;;;20.83;12.35;;;11.30;99.90;;;;;;5060942;28;20031;-85
2021/11/20 13:34:19;;;;;;;19.70;12.27;;;11.30;99.90;;;;;;5044037;28;20033;-85
2021/11/20 13:36:45;;;;;;;18.33;12.03;;;11.30;99.90;;;;;;5061018;28;20024;-85
2021/11/20 13:39:11;;;;;;;17.97;12.07;;;11.30;99.90;;;;;;5077148;28;20099;-86
2021/11/20 13:41:37;;;;;;;16.93;11.50;;;11.30;99.90;;;;;;5060152;28;20450;-85
2021/11/20 13:44:06;;;;;;;17.63;11.53;;;11.30;99.90;;;;;;5043957;28;20024;-85
2021/11/20 13:46:32;;;;;;;16.33;10.60;;;11.30;99.90;;;;;;5077105;28;20032;-88
2021/11/20 13:49:04;;;;;;;16.20;11.17;;;11.30;99.90;;;;;;5076315;28;20035;-88
2021/11/20 13:51:32;;;;;;;15.47;10.67;;;11.30;99.90;;;;;;5060300;28;20034;-87
2021/11/20 13:54:11;;;;;;;17.27;11.53;;;11.20;99.90;;;;;;5076805;28;20102;-88
2021/11/20 13:56:42;;;;;;;17.37;11.13;;;11.20;99.90;;;;;;5060217;28;20044;-88
2021/11/20 13:59:13;;;;;;;17.53;11.37;;;11.30;99.90;;;;;;5059660;28;20025;-88
2021/11/20 14:01:50;;;;;;;17.77;11.30;;;11.30;99.90;;;;;;5076608;28;20074;-88
2021/11/20 14:04:17;;;;;;;15.53;10.17;;;11.30;99.90;;;;;;5059976;28;20044;-88
2021/11/20 14:06:44;;;;;;;16.03;10.50;;;11.30;99.90;;;;;;5078301;28;20031;-88
2021/11/20 14:09:13;;;;;;;16.37;11.30;;;11.20;99.90;;;;;;5077593;28;20070;-88
2021/11/20 14:11:48;;;;;;;16.27;10.30;;;11.30;99.90;;;;;;5076906;28;20028;-88
2021/11/20 14:14:23;;;;;;;20.13;12.80;;;11.20;99.90;;;;;;5060541;28;20078;-87
2021/11/20 14:16:49;;;;;;;17.53;12.00;;;11.20;99.90;;;;;;5042910;28;20115;-88
2021/11/20 14:19:54;;;;;;;17.30;12.27;;;11.20;99.90;;;;;;5039653;28;20029;-88
2021/11/20 14:26:50;;;;;;;19.97;12.97;;;11.20;99.90;;;;;;5025480;28;20100;-88
2021/11/20 14:29:23;;;;;;;19.37;12.40;;;11.10;99.90;;;;;;5074206;28;20035;-88
2021/11/20 14:31:49;;;;;;;19.30;13.20;;;11.10;99.90;;;;;;5056724;28;20037;-88
2021/11/20 14:34:16;;;;;;;17.77;12.37;;;11.10;99.90;;;;;;5075006;28;20147;-87
2021/11/20 14:36:48;;;;;;;19.97;13.30;;;11.10;99.90;;;;;;5039930;28;20470;-87
2021/11/20 14:39:36;;;;;;;19.30;13.07;;;11.10;99.90;;;;;;5056148;28;20029;-88
2021/11/20 14:42:06;;;;;;;21.17;13.35;;;11.10;99.90;;;;;;5055963;28;20050;-88
2021/11/20 14:44:34;;;;;;;19.07;12.97;;;11.10;99.90;;;;;;5073422;28;20078;-87
2021/11/20 14:47:08;;;;;;;19.87;13.47;;;11.10;99.90;;;;;;5040250;28;20029;-87
2021/11/20 14:49:36;;;;;;;23.07;14.97;;;11.00;99.90;;;;;;5073061;28;20539;-87
2021/11/20 14:52:17;;;;;;;21.50;14.53;;;11.10;99.90;;;;;;5056859;28;20039;-86
2021/11/20 14:55:00;;;;;;;22.40;13.60;;;11.10;99.90;;;;;;5076406;28;20188;-86
2021/11/20 14:57:28;;;;;;;21.63;14.13;;;11.00;99.90;;;;;;5081964;28;20037;-87
2021/11/20 14:59:56;;;;;;;22.25;14.38;;;11.10;99.90;;;;;;5044713;28;20047;-86
2021/11/20 15:02:25;;;;;;;25.80;13.90;;;11.00;99.90;;;;;;5045041;28;20457;-86
2021/11/20 15:04:53;;;;;;;22.50;14.18;;;11.00;99.90;;;;;;5046739;28;20036;-86
2021/11/20 15:07:19;;;;;;;23.42;15.05;;;11.00;99.90;;;;;;5082976;28;20017;-86
2021/11/20 15:09:45;;;;;;;22.90;14.67;;;11.00;99.90;;;;;;5048177;28;20043;-87
2021/11/20 15:12:12;;;;;;;24.67;15.80;;;10.90;99.90;;;;;;5044795;28;20146;-86
2021/11/20 15:14:38;;;;;;;23.17;14.50;;;10.90;99.90;;;;;;5056087;28;20039;-86
2021/11/20 15:17:04;;;;;;;24.27;15.03;;;10.90;99.90;;;;;;5073938;28;20033;-86
2021/11/20 15:19:34;;;;;;;25.97;16.20;;;10.90;99.90;;;;;;5055987;28;20128;-86
2021/11/20 15:22:01;;;;;;;21.70;14.10;;;10.90;99.90;;;;;;5056447;28;20021;-87
2021/11/20 15:24:28;;;;;;;23.07;14.80;;;10.90;99.90;;;;;;5073430;28;20024;-87
2021/11/20 15:26:58;;;;;;;23.10;14.97;;;10.90;99.90;;;;;;5040060;28;20040;-87
2021/11/20 15:29:28;;;;;;;;;;;10.90;99.90;;;;;;5055918;28;20029;-86
2021/11/20 15:31:55;;;;;;;23.67;14.80;;;10.80;99.90;;;;;;5072446;28;19939;-87
2021/11/20 15:34:23;;;;;;;21.83;13.73;;;10.80;99.90;;;;;;5055644;28;20021;-87
2021/11/20 15:36:49;;;;;;;20.47;13.40;;;10.80;99.90;;;;;;5072075;28;20036;-87
2021/11/20 15:39:14;;;;;;;22.33;14.37;;;10.80;99.90;;;;;;5038514;28;20123;-87